Airport View

Enter AWOS ICAO identifier for current METAR.

ex. KFNL

KFIT 260928Z AUTO 00000KT 10SM OVC004 19/18 A2998 RMK AO2 T01890183

26 Jun 2019 12:41

Frequency: 135.175

Phone: 978-343-9121

Other Area AWOS: KASH - KORH - KAFN - KBED

TAF KORH 261132Z 2612/2712 34003KT P6SM SCT070 FM261500 35003KT P6SM SCT050 FM270300 09004KT P6SM VCSH BKN100 FM270600 03003KT P6SM BKN003 FM270900 35003KT 3SM BR BKN003 FM271100 32003KT 3SM BR BKN003